createdAt,value
2023-03-04T00:01:21.799Z,49.00
2023-03-04T00:03:49.666Z,49.00
2023-03-04T00:06:18.917Z,49.00
2023-03-04T00:08:46.799Z,49.00
2023-03-04T00:11:14.750Z,49.00
2023-03-04T00:13:42.609Z,49.00
2023-03-04T00:16:10.704Z,49.00
2023-03-04T00:18:38.567Z,49.00
2023-03-04T00:21:06.755Z,49.00
2023-03-04T00:23:36.095Z,49.00
2023-03-04T00:26:03.960Z,49.00
2023-03-04T00:28:31.808Z,49.00
2023-03-04T00:30:59.646Z,49.00
2023-03-04T00:33:27.562Z,48.90
2023-03-04T00:35:55.478Z,49.00
2023-03-04T00:38:23.409Z,49.00
2023-03-04T00:40:52.721Z,49.00
2023-03-04T00:43:20.695Z,48.90
2023-03-04T00:45:48.785Z,48.90
2023-03-04T00:48:17.297Z,48.90
2023-03-04T00:50:45.479Z,49.00
2023-03-04T00:53:13.359Z,48.90
2023-03-04T00:55:41.221Z,49.00
2023-03-04T00:58:10.468Z,48.90
2023-03-04T01:00:38.344Z,48.90
2023-03-04T01:03:06.273Z,49.00
2023-03-04T01:05:35.876Z,49.00
2023-03-04T01:08:03.729Z,48.90
2023-03-04T01:10:31.879Z,48.90
2023-03-04T01:12:59.865Z,48.90
2023-03-04T01:15:29.104Z,48.90
2023-03-04T01:17:57.180Z,48.90
2023-03-04T01:20:25.129Z,48.90
2023-03-04T01:22:53.013Z,48.90
2023-03-04T01:25:20.976Z,48.90
2023-03-04T01:27:48.820Z,49.00
2023-03-04T01:30:16.745Z,48.90
2023-03-04T01:32:45.968Z,48.90
2023-03-04T01:35:13.868Z,48.90
2023-03-04T01:37:41.802Z,48.90
2023-03-04T01:40:11.867Z,48.90
2023-03-04T01:42:39.923Z,48.90
2023-03-04T01:45:12.433Z,48.90
2023-03-04T01:47:40.378Z,49.00
2023-03-04T01:50:20.078Z,48.90
2023-03-04T01:52:48.011Z,48.90
2023-03-04T01:55:20.458Z,48.90
2023-03-04T01:57:49.862Z,48.90
2023-03-04T02:00:24.384Z,48.90
2023-03-04T02:02:54.811Z,48.90
2023-03-04T02:05:24.593Z,48.90
2023-03-04T02:07:53.517Z,48.90
2023-03-04T02:10:21.914Z,48.90
2023-03-04T02:12:49.968Z,48.90
2023-03-04T02:15:18.659Z,48.90
2023-03-04T02:17:46.505Z,48.90
2023-03-04T02:20:31.759Z,48.90
2023-03-04T02:23:06.532Z,48.90
2023-03-04T02:25:38.807Z,48.90
2023-03-04T02:28:08.114Z,48.90
2023-03-04T02:30:36.098Z,48.90
2023-03-04T02:33:03.996Z,48.90
2023-03-04T02:35:31.934Z,48.90
2023-03-04T02:37:59.877Z,48.90
2023-03-04T02:40:31.743Z,48.90
2023-03-04T02:43:00.826Z,48.90
2023-03-04T02:45:35.017Z,48.90
2023-03-04T02:48:03.281Z,48.90
2023-03-04T02:50:35.146Z,48.90
2023-03-04T02:53:03.133Z,48.90
2023-03-04T02:55:32.181Z,48.90
2023-03-04T02:58:00.157Z,48.90
2023-03-04T03:00:28.378Z,48.90
2023-03-04T03:02:58.184Z,48.90
2023-03-04T03:05:27.938Z,49.50
2023-03-04T03:07:55.824Z,48.90
2023-03-04T03:10:24.314Z,48.90
2023-03-04T03:12:52.504Z,48.90
2023-03-04T03:15:21.032Z,48.90
2023-03-04T03:17:49.881Z,48.80
2023-03-04T03:20:19.754Z,48.90
2023-03-04T03:22:48.502Z,48.80
2023-03-04T03:25:17.648Z,48.90
2023-03-04T03:27:45.533Z,48.80
2023-03-04T03:30:16.058Z,48.80
2023-03-04T03:32:43.927Z,48.80
2023-03-04T03:35:12.730Z,48.80
2023-03-04T03:37:42.001Z,48.80
2023-03-04T03:40:11.378Z,48.90
2023-03-04T03:42:39.220Z,48.90
2023-03-04T03:45:08.281Z,48.80
2023-03-04T03:47:36.153Z,48.90
2023-03-04T03:50:04.679Z,48.90
2023-03-04T03:52:32.562Z,48.90
2023-03-04T03:55:02.562Z,48.80
2023-03-04T03:57:30.806Z,48.80
2023-03-04T03:59:58.661Z,48.80
2023-03-04T04:02:26.657Z,48.80
2023-03-04T04:04:54.712Z,48.80
2023-03-04T04:07:22.793Z,48.80
2023-03-04T04:09:50.721Z,48.80
2023-03-04T04:12:20.512Z,48.80
2023-03-04T04:14:48.404Z,48.80
2023-03-04T04:17:16.309Z,48.80
2023-03-04T04:19:44.245Z,48.80
2023-03-04T04:22:16.061Z,48.80
2023-03-04T04:24:44.138Z,48.80
2023-03-04T04:27:12.678Z,48.80
2023-03-04T04:29:42.128Z,48.80
2023-03-04T04:32:10.085Z,48.80
2023-03-04T04:34:38.122Z,48.80
2023-03-04T04:37:05.988Z,48.80
2023-03-04T04:39:33.978Z,48.80
2023-03-04T04:42:01.906Z,48.80
2023-03-04T04:44:29.754Z,48.80
2023-03-04T04:46:58.955Z,48.80
2023-03-04T04:49:26.832Z,48.80
2023-03-04T04:51:54.696Z,48.80
2023-03-04T04:54:22.543Z,48.80
2023-03-04T04:56:50.436Z,48.80
2023-03-04T04:59:18.361Z,48.80
2023-03-04T05:01:46.243Z,48.80
2023-03-04T05:04:15.916Z,48.80
2023-03-04T05:06:43.886Z,48.80
2023-03-04T05:09:11.810Z,48.80
2023-03-04T05:11:39.778Z,48.80
2023-03-04T05:14:07.662Z,48.80
2023-03-04T05:16:35.530Z,48.80
2023-03-04T05:19:03.438Z,48.80
2023-03-04T05:21:32.667Z,48.80
2023-03-04T05:24:00.672Z,48.40
2023-03-04T05:26:28.522Z,48.80
2023-03-04T05:28:56.381Z,48.80
2023-03-04T05:31:24.351Z,48.80
2023-03-04T05:33:52.341Z,48.80
2023-03-04T05:36:20.535Z,48.80
2023-03-04T05:38:49.766Z,48.70
2023-03-04T05:41:18.939Z,48.80
2023-03-04T05:43:46.785Z,48.70
2023-03-04T05:46:16.123Z,48.80
2023-03-04T05:48:45.242Z,48.80
2023-03-04T05:51:13.146Z,48.80
2023-03-04T05:53:42.736Z,48.70
2023-03-04T05:56:14.806Z,48.60
2023-03-04T05:58:42.883Z,48.70
2023-03-04T06:01:11.662Z,48.80
2023-03-04T06:03:39.531Z,48.70
2023-03-04T06:06:07.765Z,48.70
2023-03-04T06:08:35.623Z,48.70
2023-03-04T06:11:04.921Z,48.80
2023-03-04T06:13:34.463Z,48.70
2023-03-04T06:16:02.647Z,48.60
2023-03-04T06:18:30.802Z,48.70
2023-03-04T06:20:59.768Z,48.60
2023-03-04T06:23:28.346Z,48.60
2023-03-04T06:25:58.163Z,48.60
2023-03-04T06:28:26.272Z,48.60
2023-03-04T06:30:56.929Z,48.60
2023-03-04T06:33:25.576Z,48.60
2023-03-04T06:35:56.443Z,48.60
2023-03-04T06:38:24.400Z,48.70
2023-03-04T06:40:52.263Z,48.60
2023-03-04T06:43:20.436Z,48.60
2023-03-04T06:45:48.450Z,48.60
2023-03-04T06:48:17.651Z,48.60
2023-03-04T06:50:45.506Z,48.70
2023-03-04T06:53:13.326Z,48.60
2023-03-04T06:55:41.207Z,48.60
2023-03-04T06:58:09.066Z,48.70
2023-03-04T07:00:36.968Z,48.60
2023-03-04T07:03:04.898Z,48.60
2023-03-04T07:05:34.087Z,48.60
2023-03-04T07:08:01.910Z,48.70
2023-03-04T07:10:29.763Z,48.70
2023-03-04T07:12:57.737Z,48.70
2023-03-04T07:15:25.599Z,48.70
2023-03-04T07:17:53.576Z,48.70
2023-03-04T07:20:21.610Z,48.70
2023-03-04T07:22:50.883Z,48.70
2023-03-04T07:25:18.971Z,48.70
2023-03-04T07:27:46.796Z,48.70
2023-03-04T07:30:15.337Z,48.70
2023-03-04T07:32:43.216Z,48.70
2023-03-04T07:35:11.254Z,48.70
2023-03-04T07:37:40.237Z,48.70
2023-03-04T07:40:11.335Z,48.70
2023-03-04T07:42:39.176Z,48.70
2023-03-04T07:45:08.661Z,48.70
2023-03-04T07:47:36.625Z,48.70
2023-03-04T07:50:05.586Z,48.70
2023-03-04T07:52:33.457Z,48.70
2023-03-04T07:55:01.276Z,48.70
2023-03-04T07:57:31.791Z,48.70
2023-03-04T07:59:59.707Z,48.70
2023-03-04T08:02:27.592Z,48.60
2023-03-04T08:04:55.429Z,48.70
2023-03-04T08:07:23.318Z,48.70
2023-03-04T08:09:51.132Z,48.80
2023-03-04T08:12:19.364Z,48.70
2023-03-04T08:14:48.566Z,48.60
2023-03-04T08:17:16.415Z,48.70
2023-03-04T08:19:44.394Z,48.60
2023-03-04T08:22:12.796Z,48.60
2023-03-04T08:24:40.759Z,48.70
2023-03-04T08:27:08.635Z,48.60
2023-03-04T08:29:36.552Z,48.60
2023-03-04T08:32:06.146Z,48.60
2023-03-04T08:34:34.050Z,48.60
2023-03-04T08:37:02.055Z,48.60
2023-03-04T08:39:30.748Z,48.70
2023-03-04T08:41:58.563Z,48.70
2023-03-04T08:44:26.879Z,48.70
2023-03-04T08:46:54.814Z,48.70
2023-03-04T08:49:24.000Z,48.70
2023-03-04T08:51:51.851Z,48.70
2023-03-04T08:54:19.717Z,48.70
2023-03-04T08:56:47.649Z,48.70
2023-03-04T08:59:15.540Z,48.70
2023-03-04T09:01:43.469Z,49.40
2023-03-04T09:04:11.444Z,48.70
2023-03-04T09:06:40.652Z,48.70
2023-03-04T09:09:08.556Z,48.70
2023-03-04T09:11:36.862Z,48.70
2023-03-04T09:14:04.701Z,48.70
2023-03-04T09:16:32.586Z,48.70
2023-03-04T09:19:01.438Z,48.80
2023-03-04T09:21:29.381Z,48.80
2023-03-04T09:23:58.594Z,48.70
2023-03-04T09:26:29.025Z,48.70
2023-03-04T09:28:59.615Z,48.70
2023-03-04T09:31:28.481Z,48.70
2023-03-04T09:33:58.557Z,48.70
2023-03-04T09:36:26.564Z,48.70
2023-03-04T09:38:54.440Z,48.70
2023-03-04T09:41:26.598Z,48.70
2023-03-04T09:43:56.824Z,48.70
2023-03-04T09:46:33.915Z,48.80
2023-03-04T09:49:01.914Z,48.80
2023-03-04T09:51:47.604Z,48.80
2023-03-04T09:54:25.705Z,48.80
2023-03-04T09:57:01.248Z,48.80
2023-03-04T09:59:36.714Z,48.80
2023-03-04T10:02:18.936Z,48.70
2023-03-04T10:04:50.914Z,48.80
2023-03-04T10:07:23.801Z,48.80
2023-03-04T10:09:56.877Z,48.80
2023-03-04T10:12:31.886Z,48.80
2023-03-04T10:15:02.734Z,48.80
2023-03-04T10:17:38.039Z,48.80
2023-03-04T10:20:08.864Z,48.80
2023-03-04T10:22:42.036Z,48.80
2023-03-04T10:25:19.557Z,48.80
2023-03-04T10:27:53.805Z,48.70
2023-03-04T10:30:32.876Z,48.70
2023-03-04T10:33:00.850Z,48.70
2023-03-04T10:35:36.751Z,48.70
2023-03-04T10:38:05.580Z,48.70
2023-03-04T10:40:39.979Z,48.70
2023-03-04T10:43:17.564Z,48.70
2023-03-04T10:45:46.110Z,48.70
2023-03-04T10:48:22.486Z,48.70
2023-03-04T10:50:50.579Z,48.70
2023-03-04T10:53:28.889Z,48.70
2023-03-04T10:55:57.094Z,48.70
2023-03-04T10:58:26.523Z,48.70
2023-03-04T11:01:03.725Z,48.70
2023-03-04T11:03:35.585Z,48.70
2023-03-04T11:06:18.033Z,48.70
2023-03-04T11:08:47.476Z,48.70
2023-03-04T11:11:24.647Z,48.70
2023-03-04T11:13:57.291Z,48.70
2023-03-04T11:16:28.048Z,48.70
2023-03-04T11:18:59.073Z,48.70
2023-03-04T11:21:30.356Z,48.70
2023-03-04T11:24:00.248Z,48.70
2023-03-04T11:26:32.295Z,48.70
2023-03-04T11:29:06.922Z,48.70
2023-03-04T11:31:39.358Z,48.70
2023-03-04T11:34:15.035Z,48.70
2023-03-04T11:36:54.905Z,48.70
2023-03-04T11:39:30.091Z,48.70
2023-03-04T11:42:03.074Z,48.70
2023-03-04T11:44:32.656Z,49.30
2023-03-04T11:47:27.725Z,48.70
2023-03-04T11:50:17.536Z,48.70
2023-03-04T11:53:10.055Z,48.70
2023-03-04T11:55:43.748Z,48.70
2023-03-04T11:58:34.655Z,48.70
2023-03-04T12:01:09.511Z,48.70
2023-03-04T12:04:07.644Z,48.70
2023-03-04T12:06:44.650Z,48.70
2023-03-04T12:09:40.794Z,48.60
2023-03-04T12:12:27.941Z,48.70
2023-03-04T12:15:08.112Z,48.60
2023-03-04T12:17:52.385Z,48.60
2023-03-04T12:20:39.464Z,48.60
2023-03-04T12:23:19.310Z,48.60
2023-03-04T12:25:57.068Z,48.70
2023-03-04T12:28:38.598Z,48.60
2023-03-04T12:31:26.403Z,48.60
2023-03-04T12:34:22.706Z,48.60
2023-03-04T12:36:56.728Z,48.60
2023-03-04T12:39:33.308Z,48.60
2023-03-04T12:42:11.741Z,48.60
2023-03-04T12:44:46.966Z,48.60
2023-03-04T12:47:31.709Z,48.60
2023-03-04T12:50:21.163Z,48.60
2023-03-04T12:52:58.364Z,48.60
2023-03-04T12:55:35.393Z,48.60
2023-03-04T12:58:03.908Z,48.60
2023-03-04T13:00:41.582Z,48.60
2023-03-04T13:03:16.042Z,48.60
2023-03-04T13:06:00.608Z,48.70
2023-03-04T13:08:35.298Z,48.60
2023-03-04T13:11:04.566Z,48.60
2023-03-04T13:13:39.483Z,48.60
2023-03-04T13:16:28.269Z,48.60
2023-03-04T13:18:56.162Z,48.60
2023-03-04T13:21:27.708Z,48.60
2023-03-04T13:23:56.732Z,48.60
2023-03-04T13:26:30.195Z,48.60
2023-03-04T13:29:36.856Z,48.60
2023-03-04T13:32:06.544Z,48.60
2023-03-04T13:34:49.798Z,48.70
2023-03-04T13:37:33.864Z,48.60
2023-03-04T13:40:36.902Z,48.60
2023-03-04T13:43:26.818Z,48.60
2023-03-04T13:45:55.060Z,48.60
2023-03-04T13:48:33.063Z,48.60
2023-03-04T13:51:01.061Z,48.60
2023-03-04T13:53:45.847Z,49.20
2023-03-04T13:56:24.630Z,48.60
2023-03-04T13:59:02.181Z,48.60
2023-03-04T14:01:32.649Z,48.60
2023-03-04T14:04:01.907Z,48.60
2023-03-04T14:06:31.736Z,48.60
2023-03-04T14:09:01.005Z,48.60
2023-03-04T14:11:33.999Z,48.60
2023-03-04T14:14:06.631Z,48.60
2023-03-04T14:16:39.852Z,48.60
2023-03-04T14:19:14.877Z,48.60
2023-03-04T14:21:46.547Z,48.60
2023-03-04T14:24:17.418Z,48.60
2023-03-04T14:26:45.461Z,48.60
2023-03-04T14:29:25.939Z,48.60
2023-03-04T14:31:54.764Z,48.60
2023-03-04T14:34:28.096Z,48.60
2023-03-04T14:36:56.256Z,48.60
2023-03-04T14:39:27.981Z,48.60
2023-03-04T14:41:58.363Z,48.60
2023-03-04T14:44:35.778Z,48.60
2023-03-04T14:47:11.577Z,48.60
2023-03-04T14:49:40.415Z,48.60
2023-03-04T14:52:08.448Z,48.60
2023-03-04T14:54:39.785Z,48.60
2023-03-04T14:57:24.748Z,48.60
2023-03-04T14:59:53.034Z,48.60
2023-03-04T15:02:31.036Z,48.60
2023-03-04T15:05:01.436Z,48.60
2023-03-04T15:07:34.481Z,48.60
2023-03-04T15:10:05.568Z,48.60
2023-03-04T15:12:36.208Z,48.60
2023-03-04T15:15:06.557Z,48.60
2023-03-04T15:17:38.648Z,48.60
2023-03-04T15:20:24.333Z,48.60
2023-03-04T15:23:03.567Z,48.50
2023-03-04T15:25:32.806Z,48.60
2023-03-04T15:28:02.691Z,48.60
2023-03-04T15:30:33.704Z,48.60
2023-03-04T15:33:01.982Z,48.60
2023-03-04T15:35:32.399Z,48.60
2023-03-04T15:38:01.454Z,48.60
2023-03-04T15:40:33.052Z,48.60
2023-03-04T15:43:02.920Z,48.60
2023-03-04T15:45:32.449Z,48.60
2023-03-04T15:48:00.355Z,48.60
2023-03-04T15:50:29.943Z,48.60
2023-03-04T15:53:02.154Z,48.60
2023-03-04T15:55:32.738Z,48.60
2023-03-04T15:58:01.360Z,48.60
2023-03-04T16:00:30.844Z,48.60
2023-03-04T16:02:58.741Z,48.70
2023-03-04T16:05:26.919Z,48.60
2023-03-04T16:07:55.012Z,48.60
2023-03-04T16:10:26.282Z,48.60
2023-03-04T16:12:55.691Z,48.60
2023-03-04T16:15:25.777Z,48.60
2023-03-04T16:17:53.869Z,48.60
2023-03-04T16:20:24.529Z,48.60
2023-03-04T16:22:55.097Z,48.60
2023-03-04T16:25:25.058Z,48.60
2023-03-04T16:27:57.052Z,48.60
2023-03-04T16:30:27.749Z,48.60
2023-03-04T16:32:55.833Z,48.60
2023-03-04T16:35:25.219Z,48.70
2023-03-04T16:37:53.579Z,48.60
2023-03-04T16:40:24.700Z,48.60
2023-03-04T16:42:52.710Z,48.60
2023-03-04T16:45:25.073Z,48.60
2023-03-04T16:47:53.987Z,48.60
2023-03-04T16:50:26.814Z,48.60
2023-03-04T16:52:56.270Z,48.60
2023-03-04T16:55:26.386Z,48.60
2023-03-04T16:57:56.117Z,48.60
2023-03-04T17:00:27.884Z,48.60
2023-03-04T17:02:58.386Z,48.60
2023-03-04T17:05:28.125Z,48.60
2023-03-04T17:07:56.065Z,48.60
2023-03-04T17:10:24.898Z,48.60
2023-03-04T17:12:53.150Z,48.60
2023-03-04T17:15:21.127Z,48.60
2023-03-04T17:17:52.202Z,48.60
2023-03-04T17:20:20.569Z,48.60
2023-03-04T17:22:48.469Z,48.60
2023-03-04T17:25:16.526Z,48.60
2023-03-04T17:27:44.374Z,48.60
2023-03-04T17:30:14.058Z,48.60
2023-03-04T17:32:42.407Z,48.60
2023-03-04T17:35:12.687Z,48.60
2023-03-04T17:37:41.448Z,48.60
2023-03-04T17:40:14.058Z,48.60
2023-03-04T17:42:42.498Z,48.60
2023-03-04T17:45:11.877Z,48.70
2023-03-04T17:47:39.791Z,48.70
2023-03-04T17:50:09.612Z,48.60
2023-03-04T17:52:38.833Z,48.70
2023-03-04T17:55:07.635Z,48.70
2023-03-04T17:57:37.577Z,48.70
2023-03-04T18:00:06.524Z,48.70
2023-03-04T18:02:34.425Z,48.70
2023-03-04T18:05:05.719Z,48.70
2023-03-04T18:07:33.653Z,48.70
2023-03-04T18:10:02.966Z,48.70
2023-03-04T18:12:30.810Z,48.70
2023-03-04T18:14:58.853Z,48.70
2023-03-04T18:17:26.858Z,48.70
2023-03-04T18:19:55.212Z,49.30
2023-03-04T18:22:23.086Z,48.70
2023-03-04T18:24:50.934Z,48.70
2023-03-04T18:27:20.137Z,48.70
2023-03-04T18:29:47.981Z,48.70
2023-03-04T18:32:15.855Z,48.70
2023-03-04T18:34:43.721Z,48.70
2023-03-04T18:37:11.575Z,48.70
2023-03-04T18:39:39.635Z,48.70
2023-03-04T18:42:07.524Z,48.70
2023-03-04T18:44:36.738Z,48.70
2023-03-04T18:47:04.769Z,48.70
2023-03-04T18:49:32.800Z,48.70
2023-03-04T18:52:00.609Z,48.70
2023-03-04T18:54:28.468Z,48.60
2023-03-04T18:57:00.742Z,48.70
2023-03-04T18:59:32.528Z,48.70
2023-03-04T19:02:05.952Z,48.70
2023-03-04T19:04:33.888Z,48.70
2023-03-04T19:07:01.734Z,48.70
2023-03-04T19:09:29.641Z,48.70
2023-03-04T19:11:57.552Z,48.70
2023-03-04T19:14:25.477Z,48.70
2023-03-04T19:16:53.332Z,49.40
2023-03-04T19:19:22.547Z,48.70
2023-03-04T19:21:50.464Z,48.70
2023-03-04T19:24:18.331Z,48.70
2023-03-04T19:26:46.181Z,48.70
2023-03-04T19:29:15.134Z,48.70
2023-03-04T19:31:43.362Z,48.70
2023-03-04T19:34:11.332Z,48.70
2023-03-04T19:36:40.568Z,48.70
2023-03-04T19:39:10.175Z,48.70
2023-03-04T19:41:38.147Z,48.70
2023-03-04T19:44:06.065Z,48.70
2023-03-04T19:46:34.598Z,48.80
2023-03-04T19:49:03.148Z,48.80
2023-03-04T19:51:32.691Z,48.70
2023-03-04T19:54:02.317Z,48.70
2023-03-04T19:56:30.531Z,48.70
2023-03-04T19:58:58.909Z,48.70
2023-03-04T20:01:28.681Z,48.70
2023-03-04T20:03:57.518Z,48.80
2023-03-04T20:06:27.006Z,48.70
2023-03-04T20:08:58.019Z,48.70
2023-03-04T20:11:28.111Z,48.80
2023-03-04T20:13:58.299Z,48.70
2023-03-04T20:16:26.608Z,48.80
2023-03-04T20:18:54.647Z,48.80
2023-03-04T20:21:22.497Z,48.70
2023-03-04T20:23:50.340Z,48.80
2023-03-04T20:26:18.971Z,48.80
2023-03-04T20:28:48.144Z,48.80
2023-03-04T20:31:21.054Z,48.80
2023-03-04T20:33:49.818Z,48.80
2023-03-04T20:36:18.054Z,48.80
2023-03-04T20:38:46.122Z,48.80
2023-03-04T20:41:14.249Z,48.70
2023-03-04T20:43:42.141Z,48.80
2023-03-04T20:46:33.396Z,48.80
2023-03-04T20:49:03.656Z,48.70
2023-03-04T20:51:32.799Z,48.80
2023-03-04T20:54:01.080Z,48.80
2023-03-04T20:56:29.603Z,48.80
2023-03-04T20:58:58.858Z,48.80
2023-03-04T21:01:26.986Z,48.80
2023-03-04T21:03:56.362Z,48.80
2023-03-04T21:06:25.144Z,48.80
2023-03-04T21:08:53.275Z,48.80
2023-03-04T21:11:23.348Z,48.80
2023-03-04T21:13:56.396Z,48.80
2023-03-04T21:16:26.456Z,48.80
2023-03-04T21:18:56.148Z,48.80
2023-03-04T21:21:26.388Z,48.80
2023-03-04T21:23:56.461Z,48.80
2023-03-04T21:26:24.847Z,48.80
2023-03-04T21:28:53.456Z,48.80
2023-03-04T21:31:24.016Z,48.80
2023-03-04T21:33:53.793Z,48.80
2023-03-04T21:36:23.630Z,48.80
2023-03-04T21:38:51.657Z,48.80
2023-03-04T21:41:23.057Z,48.80
2023-03-04T21:43:52.086Z,48.80
2023-03-04T21:46:20.216Z,48.80
2023-03-04T21:48:48.443Z,48.80
2023-03-04T21:51:18.086Z,48.80
2023-03-04T21:53:47.313Z,48.80
2023-03-04T21:56:15.569Z,48.70
2023-03-04T21:58:45.759Z,48.80
2023-03-04T22:01:15.851Z,48.80
2023-03-04T22:03:43.980Z,48.80
2023-03-04T22:06:13.306Z,48.80
2023-03-04T22:08:42.327Z,48.80
2023-03-04T22:11:12.623Z,48.70
2023-03-04T22:13:40.810Z,48.80
2023-03-04T22:16:10.741Z,48.80
2023-03-04T22:18:40.583Z,49.40
2023-03-04T22:21:10.450Z,48.80
2023-03-04T22:23:38.832Z,48.80
2023-03-04T22:26:08.449Z,48.80
2023-03-04T22:28:38.265Z,48.80
2023-03-04T22:31:14.887Z,48.80
2023-03-04T22:33:42.886Z,48.80
2023-03-04T22:36:10.984Z,48.80
2023-03-04T22:38:39.455Z,48.80
2023-03-04T22:41:13.883Z,48.70
2023-03-04T22:43:43.553Z,48.80
2023-03-04T22:46:16.126Z,48.80
2023-03-04T22:48:44.580Z,48.80
2023-03-04T22:51:12.656Z,48.80
2023-03-04T22:53:40.799Z,48.80
2023-03-04T22:56:08.747Z,48.80
2023-03-04T22:58:36.901Z,48.80
2023-03-04T23:01:07.011Z,48.80
2023-03-04T23:03:35.282Z,48.80
2023-03-04T23:06:04.869Z,48.80
2023-03-04T23:08:33.174Z,48.80
2023-03-04T23:11:01.338Z,48.80
2023-03-04T23:13:29.310Z,48.80
2023-03-04T23:15:57.147Z,48.80
2023-03-04T23:18:26.442Z,48.80
2023-03-04T23:20:54.306Z,48.80
2023-03-04T23:23:22.483Z,48.80
2023-03-04T23:25:52.050Z,48.80
2023-03-04T23:28:20.016Z,48.80
2023-03-04T23:30:47.896Z,48.80
2023-03-04T23:33:15.763Z,48.80
2023-03-04T23:35:45.116Z,48.80
2023-03-04T23:38:13.116Z,48.80
2023-03-04T23:40:41.079Z,48.80
2023-03-04T23:43:08.938Z,48.80
2023-03-04T23:45:39.013Z,48.80
2023-03-04T23:48:07.295Z,48.80
2023-03-04T23:50:38.052Z,48.80
2023-03-04T23:53:07.244Z,48.80
2023-03-04T23:55:35.121Z,48.80
2023-03-04T23:58:02.950Z,48.80
